createdAt,value
2023-04-13T00:00:51.024Z,1.20
2023-04-13T00:03:19.179Z,3.03
2023-04-13T00:05:48.566Z,1.83
2023-04-13T00:08:17.109Z,1.60
2023-04-13T00:10:46.806Z,2.03
2023-04-13T00:13:15.435Z,3.33
2023-04-13T00:15:44.481Z,2.43
2023-04-13T00:18:12.976Z,2.43
2023-04-13T00:20:43.433Z,1.70
2023-04-13T00:23:12.403Z,1.00
2023-04-13T00:25:40.531Z,1.27
2023-04-13T00:28:10.326Z,0.90
2023-04-13T00:30:38.472Z,1.00
2023-04-13T00:33:07.052Z,0.93
2023-04-13T00:35:35.414Z,1.00
2023-04-13T00:38:04.558Z,0.90
2023-04-13T00:40:32.818Z,0.90
2023-04-13T00:43:02.203Z,0.70
2023-04-13T00:45:31.955Z,1.00
2023-04-13T00:48:00.526Z,1.10
2023-04-13T00:50:29.029Z,0.93
2023-04-13T00:52:58.028Z,0.80
2023-04-13T00:55:27.822Z,0.93
2023-04-13T00:57:56.013Z,0.83
2023-04-13T01:00:25.721Z,1.07
2023-04-13T01:02:57.444Z,0.90
2023-04-13T01:05:29.559Z,0.80
2023-04-13T01:08:09.282Z,0.80
2023-04-13T01:10:42.915Z,0.90
2023-04-13T01:13:19.284Z,1.10
2023-04-13T01:16:01.318Z,0.97
2023-04-13T01:18:33.514Z,1.10
2023-04-13T01:21:04.592Z,1.93
2023-04-13T01:23:50.841Z,1.43
2023-04-13T01:26:22.653Z,2.43
2023-04-13T01:28:52.998Z,1.90
2023-04-13T01:31:22.539Z,1.20
2023-04-13T01:33:51.335Z,1.43
2023-04-13T01:36:21.006Z,1.20
2023-04-13T01:38:49.057Z,1.00
2023-04-13T01:41:17.588Z,1.13
2023-04-13T01:43:46.857Z,0.90
2023-04-13T01:46:22.763Z,0.90
2023-04-13T01:49:04.910Z,0.80
2023-04-13T01:51:51.369Z,0.90
2023-04-13T01:54:27.336Z,1.00
2023-04-13T01:57:00.147Z,1.10
2023-04-13T01:59:28.518Z,0.83
2023-04-13T02:01:59.470Z,0.80
2023-04-13T02:04:28.239Z,1.10
2023-04-13T02:06:56.475Z,0.77
2023-04-13T02:09:31.419Z,0.73
2023-04-13T02:11:59.526Z,0.77
2023-04-13T02:14:28.243Z,0.67
2023-04-13T02:16:58.030Z,0.60
2023-04-13T02:19:26.185Z,0.60
2023-04-13T02:21:54.267Z,0.60
2023-04-13T02:24:22.304Z,0.70
2023-04-13T02:26:50.993Z,0.60
2023-04-13T02:29:19.131Z,0.70
2023-04-13T02:31:47.180Z,0.70
2023-04-13T02:34:16.784Z,0.60
2023-04-13T02:36:45.300Z,0.70
2023-04-13T02:39:13.504Z,0.60
2023-04-13T02:41:43.109Z,0.60
2023-04-13T02:44:15.857Z,0.60
2023-04-13T02:46:50.353Z,1.00
2023-04-13T02:49:20.354Z,0.60
2023-04-13T02:51:57.166Z,0.60
2023-04-13T02:54:37.901Z,0.60
2023-04-13T02:57:06.177Z,0.67
2023-04-13T02:59:38.252Z,0.70
2023-04-13T03:02:10.028Z,0.50
2023-04-13T03:04:40.178Z,0.50
2023-04-13T03:07:10.182Z,0.57
2023-04-13T03:09:45.027Z,0.60
2023-04-13T03:12:13.273Z,0.60
2023-04-13T03:14:43.972Z,0.50
2023-04-13T03:17:12.953Z,0.60
2023-04-13T03:19:46.608Z,0.50
2023-04-13T03:22:15.994Z,0.60
2023-04-13T03:24:47.379Z,0.50
2023-04-13T03:27:23.554Z,0.60
2023-04-13T03:29:54.497Z,0.60
2023-04-13T03:32:23.965Z,0.60
2023-04-13T03:35:00.508Z,0.50
2023-04-13T03:37:32.341Z,0.60
2023-04-13T03:40:10.988Z,0.67
2023-04-13T03:42:47.487Z,0.60
2023-04-13T03:45:15.755Z,0.60
2023-04-13T03:47:44.182Z,0.70
2023-04-13T03:50:13.965Z,0.60
2023-04-13T03:52:42.375Z,0.63
2023-04-13T03:55:10.934Z,0.60
2023-04-13T03:57:41.054Z,0.60
2023-04-13T04:00:15.794Z,0.70
2023-04-13T04:02:58.486Z,0.50
2023-04-13T04:05:36.586Z,0.70
2023-04-13T04:08:06.456Z,0.70
2023-04-13T04:10:34.629Z,0.60
2023-04-13T04:13:03.920Z,0.67
2023-04-13T04:15:34.878Z,0.70
2023-04-13T04:18:07.060Z,0.60
2023-04-13T04:20:39.584Z,0.63
2023-04-13T04:23:09.942Z,0.50
2023-04-13T04:25:54.740Z,0.60
2023-04-13T04:28:23.134Z,0.60
2023-04-13T04:30:54.322Z,0.67
2023-04-13T04:33:29.381Z,0.70
2023-04-13T04:36:01.730Z,0.70
2023-04-13T04:38:32.818Z,0.60
2023-04-13T04:41:05.637Z,0.70
2023-04-13T04:43:35.769Z,0.70
2023-04-13T04:46:04.947Z,0.70
2023-04-13T04:48:37.654Z,0.70
2023-04-13T04:51:08.492Z,0.90
2023-04-13T04:53:37.091Z,0.67
2023-04-13T04:56:09.261Z,0.70
2023-04-13T04:58:43.476Z,0.67
2023-04-13T05:01:12.756Z,0.80
2023-04-13T05:03:42.189Z,0.80
2023-04-13T05:06:26.672Z,1.17
2023-04-13T05:08:54.753Z,1.37
2023-04-13T05:11:23.707Z,4.50
2023-04-13T05:13:53.775Z,1.80
2023-04-13T05:16:24.610Z,4.77
2023-04-13T05:18:54.125Z,5.77
2023-04-13T05:21:43.900Z,4.00
2023-04-13T05:24:13.199Z,7.77
2023-04-13T05:26:43.178Z,5.37
2023-04-13T05:29:13.121Z,14.90
2023-04-13T05:31:44.964Z,9.47
2023-04-13T05:34:13.192Z,8.10
2023-04-13T05:36:46.932Z,10.20
2023-04-13T05:39:16.182Z,8.13
2023-04-13T05:41:44.198Z,13.07
2023-04-13T05:44:12.851Z,5.67
2023-04-13T05:46:41.680Z,9.00
2023-04-13T05:49:10.721Z,5.03
2023-04-13T05:51:39.687Z,1.30
2023-04-13T05:54:10.557Z,1.17
2023-04-13T05:56:39.240Z,1.13
2023-04-13T05:59:07.433Z,1.10
2023-04-13T06:01:36.507Z,2.30
2023-04-13T06:04:06.123Z,2.90
2023-04-13T06:06:36.074Z,1.50
2023-04-13T06:09:05.717Z,1.43
2023-04-13T06:11:35.631Z,1.47
2023-04-13T06:14:04.274Z,1.10
2023-04-13T06:16:32.423Z,0.80
2023-04-13T06:19:02.580Z,1.03
2023-04-13T06:21:33.710Z,1.20
2023-04-13T06:24:01.932Z,1.10
2023-04-13T06:26:37.487Z,1.40
2023-04-13T06:29:06.350Z,1.20
2023-04-13T06:31:43.136Z,1.33
2023-04-13T06:34:16.835Z,1.00
2023-04-13T06:36:45.581Z,1.33
2023-04-13T06:39:16.403Z,1.70
2023-04-13T06:41:54.304Z,1.83
2023-04-13T06:44:42.924Z,1.60
2023-04-13T06:47:11.939Z,1.30
2023-04-13T06:49:40.752Z,2.30
2023-04-13T06:52:09.068Z,1.70
2023-04-13T06:54:37.088Z,2.20
2023-04-13T06:57:15.305Z,1.80
2023-04-13T06:59:43.615Z,1.50
2023-04-13T07:02:11.876Z,1.40
2023-04-13T07:04:40.337Z,1.63
2023-04-13T07:07:08.764Z,1.47
2023-04-13T07:09:36.902Z,1.30
2023-04-13T07:12:07.926Z,1.40
2023-04-13T07:14:38.526Z,1.40
2023-04-13T07:17:09.006Z,1.00
2023-04-13T07:19:39.229Z,1.10
2023-04-13T07:22:07.257Z,1.00
2023-04-13T07:24:36.122Z,1.20
2023-04-13T07:27:08.779Z,1.10
2023-04-13T07:29:38.355Z,1.00
2023-04-13T07:32:10.754Z,1.30
2023-04-13T07:34:39.125Z,1.30
2023-04-13T07:37:07.773Z,1.20
2023-04-13T07:39:35.943Z,1.40
2023-04-13T07:42:04.788Z,3.50
2023-04-13T07:44:42.442Z,1.30
2023-04-13T07:47:13.149Z,4.07
2023-04-13T07:49:43.348Z,1.40
2023-04-13T07:52:15.357Z,1.00
2023-04-13T07:54:43.579Z,1.40
2023-04-13T07:57:13.313Z,1.67
2023-04-13T07:59:49.329Z,1.20
2023-04-13T08:02:18.276Z,1.13
2023-04-13T08:04:50.221Z,1.10
2023-04-13T08:07:23.460Z,1.20
2023-04-13T08:09:52.785Z,1.37
2023-04-13T08:12:22.902Z,1.47
2023-04-13T08:14:54.420Z,1.30
2023-04-13T08:17:23.141Z,1.40
2023-04-13T08:19:51.535Z,1.30
2023-04-13T08:22:20.225Z,1.27
2023-04-13T08:24:48.244Z,1.33
2023-04-13T08:27:16.618Z,1.40
2023-04-13T08:29:46.515Z,1.43
2023-04-13T08:32:16.349Z,1.30
2023-04-13T08:34:44.671Z,1.87
2023-04-13T08:37:15.418Z,1.40
2023-04-13T08:39:45.244Z,1.50
2023-04-13T08:42:14.830Z,2.33
2023-04-13T08:44:43.944Z,1.70
2023-04-13T08:47:12.302Z,2.97
2023-04-13T08:49:43.410Z,1.77
2023-04-13T08:52:13.374Z,1.40
2023-04-13T08:54:44.227Z,1.30
2023-04-13T08:57:21.777Z,1.37
2023-04-13T08:59:52.270Z,1.60
2023-04-13T09:02:24.325Z,1.40
2023-04-13T09:05:00.213Z,1.20
2023-04-13T09:07:32.623Z,1.33
2023-04-13T09:10:09.519Z,2.10
2023-04-13T09:12:37.648Z,1.30
2023-04-13T09:15:07.737Z,1.80
2023-04-13T09:17:44.546Z,1.70
2023-04-13T09:20:17.592Z,1.30
2023-04-13T09:22:46.488Z,1.50
2023-04-13T09:25:24.787Z,1.63
2023-04-13T09:27:53.187Z,2.10
2023-04-13T09:30:22.265Z,1.20
2023-04-13T09:33:02.899Z,1.30
2023-04-13T09:35:33.024Z,2.07
2023-04-13T09:38:01.196Z,2.73
2023-04-13T09:40:29.462Z,1.90
2023-04-13T09:42:58.860Z,1.03
2023-04-13T09:45:35.557Z,1.47
2023-04-13T09:48:04.371Z,1.30
2023-04-13T09:50:36.632Z,1.53
2023-04-13T09:53:06.555Z,1.37
2023-04-13T09:55:37.032Z,1.33
2023-04-13T09:58:12.686Z,1.70
2023-04-13T10:00:43.021Z,1.30
2023-04-13T10:03:12.735Z,1.10
2023-04-13T10:05:58.815Z,1.33
2023-04-13T10:11:02.445Z,0.93
2023-04-13T10:13:35.696Z,1.40
2023-04-13T10:16:37.491Z,0.80
2023-04-13T10:19:11.034Z,1.23
2023-04-13T10:21:45.229Z,1.10
2023-04-13T10:24:14.740Z,2.00
2023-04-13T10:26:45.144Z,1.33
2023-04-13T10:29:14.691Z,1.00
2023-04-13T10:31:46.859Z,1.20
2023-04-13T10:34:25.441Z,1.40
2023-04-13T10:36:58.346Z,1.80
2023-04-13T10:39:27.671Z,1.17
2023-04-13T10:42:03.815Z,1.30
2023-04-13T10:44:45.696Z,1.20
2023-04-13T10:47:14.352Z,1.00
2023-04-13T10:49:43.930Z,1.10
2023-04-13T10:52:13.681Z,0.93
2023-04-13T10:54:43.006Z,1.20
2023-04-13T10:57:12.835Z,1.10
2023-04-13T10:59:56.215Z,1.20
2023-04-13T11:02:28.247Z,1.10
2023-04-13T11:04:57.000Z,1.07
2023-04-13T11:07:27.103Z,1.20
2023-04-13T11:10:02.873Z,1.40
2023-04-13T11:12:31.948Z,2.20
2023-04-13T11:15:00.827Z,1.80
2023-04-13T11:17:29.020Z,1.00
2023-04-13T11:19:58.226Z,1.20
2023-04-13T11:22:28.947Z,1.20
2023-04-13T11:25:08.584Z,1.40
2023-04-13T11:27:38.656Z,1.13
2023-04-13T11:30:09.841Z,1.30
2023-04-13T11:32:42.981Z,1.00
2023-04-13T11:35:14.047Z,1.10
2023-04-13T11:37:45.206Z,1.97
2023-04-13T11:40:16.827Z,1.17
2023-04-13T11:42:46.368Z,1.23
2023-04-13T11:45:15.795Z,1.30
2023-04-13T11:47:44.303Z,1.20
2023-04-13T11:50:15.769Z,1.40
2023-04-13T11:52:46.668Z,1.20
2023-04-13T11:55:23.141Z,1.30
2023-04-13T11:57:53.295Z,1.40
2023-04-13T12:00:26.135Z,1.40
2023-04-13T12:05:30.116Z,1.23
2023-04-13T12:08:00.805Z,1.10
2023-04-13T12:10:38.979Z,1.30
2023-04-13T12:16:05.572Z,0.90
2023-04-13T12:18:43.689Z,1.70
2023-04-13T12:21:17.072Z,1.10
2023-04-13T12:23:54.947Z,1.30
2023-04-13T12:28:57.292Z,2.90
2023-04-13T12:31:25.897Z,1.23
2023-04-13T12:33:53.958Z,1.30
2023-04-13T12:36:22.034Z,3.40
2023-04-13T12:38:50.049Z,1.70
2023-04-13T12:41:19.436Z,1.07
2023-04-13T12:43:47.517Z,1.30
2023-04-13T12:46:15.805Z,1.10
2023-04-13T12:48:43.933Z,1.47
2023-04-13T12:51:11.899Z,1.07
2023-04-13T12:53:40.110Z,1.20
2023-04-13T12:56:08.833Z,1.17
2023-04-13T12:58:38.372Z,1.10
2023-04-13T13:01:06.980Z,1.10
2023-04-13T13:03:36.831Z,1.00
2023-04-13T13:06:06.263Z,1.03
2023-04-13T13:08:36.756Z,1.30
2023-04-13T13:11:06.179Z,1.17
2023-04-13T13:13:34.335Z,1.17
2023-04-13T13:16:03.992Z,1.30
2023-04-13T13:18:46.627Z,1.53
2023-04-13T13:21:18.532Z,1.10
2023-04-13T13:23:46.705Z,1.10
2023-04-13T13:28:46.259Z,1.07
2023-04-13T13:31:16.167Z,0.80
2023-04-13T13:33:44.266Z,1.10
2023-04-13T13:36:13.972Z,1.00
2023-04-13T13:38:42.756Z,1.70
2023-04-13T13:41:11.435Z,1.20
2023-04-13T13:43:39.945Z,0.90
2023-04-13T13:46:08.140Z,1.00
2023-04-13T13:48:40.004Z,1.33
2023-04-13T13:51:23.953Z,1.23
2023-04-13T13:53:52.155Z,1.13
2023-04-13T13:56:20.589Z,1.37
2023-04-13T13:58:48.631Z,1.30
2023-04-13T14:01:17.454Z,0.80
2023-04-13T14:03:46.954Z,1.50
2023-04-13T14:06:15.090Z,1.40
2023-04-13T14:08:43.077Z,1.67
2023-04-13T14:11:12.450Z,3.27
2023-04-13T14:13:40.414Z,4.90
2023-04-13T14:16:09.107Z,3.20
2023-04-13T14:18:37.361Z,4.40
2023-04-13T14:21:07.383Z,5.77
2023-04-13T14:23:37.389Z,9.30
2023-04-13T14:26:05.788Z,4.80
2023-04-13T14:28:33.894Z,5.83
2023-04-13T14:31:01.990Z,6.60
2023-04-13T14:33:30.113Z,6.90
2023-04-13T14:35:58.134Z,2.93
2023-04-13T14:38:27.723Z,4.00
2023-04-13T14:40:55.952Z,6.97
2023-04-13T14:43:24.370Z,7.30
2023-04-13T14:45:55.954Z,19.60
2023-04-13T14:48:24.034Z,2.00
2023-04-13T14:50:52.732Z,1.10
2023-04-13T14:53:20.834Z,1.23
2023-04-13T14:55:50.539Z,1.03
2023-04-13T14:58:18.955Z,0.93
2023-04-13T15:00:47.895Z,1.30
2023-04-13T15:03:16.203Z,1.07
2023-04-13T15:05:46.156Z,1.30
2023-04-13T15:08:16.638Z,0.90
2023-04-13T15:10:44.741Z,1.27
2023-04-13T15:13:14.162Z,1.60
2023-04-13T15:15:42.637Z,1.27
2023-04-13T15:18:10.709Z,1.80
2023-04-13T15:20:38.789Z,1.77
2023-04-13T15:23:06.853Z,2.93
2023-04-13T15:25:37.306Z,3.60
2023-04-13T15:28:06.129Z,3.40
2023-04-13T15:30:35.686Z,2.17
2023-04-13T15:33:04.466Z,4.63
2023-04-13T15:35:35.825Z,1.40
2023-04-13T15:38:04.422Z,1.70
2023-04-13T15:40:35.158Z,1.50
2023-04-13T15:43:03.488Z,1.40
2023-04-13T15:45:31.721Z,1.83
2023-04-13T15:48:01.257Z,1.27
2023-04-13T15:50:29.381Z,1.80
2023-04-13T15:52:57.722Z,1.30
2023-04-13T15:55:25.787Z,1.13
2023-04-13T15:57:55.968Z,2.17
2023-04-13T16:00:24.836Z,1.23
2023-04-13T16:02:53.164Z,1.27
2023-04-13T16:05:22.911Z,1.50
2023-04-13T16:07:51.499Z,1.40
2023-04-13T16:10:20.027Z,1.43
2023-04-13T16:12:50.110Z,1.60
2023-04-13T16:15:20.044Z,0.90
2023-04-13T16:17:48.247Z,1.00
2023-04-13T16:20:20.406Z,1.13
2023-04-13T16:22:53.210Z,1.10
2023-04-13T16:25:21.386Z,1.10
2023-04-13T16:27:50.008Z,1.17
2023-04-13T16:30:20.817Z,0.90
2023-04-13T16:32:50.042Z,1.10
2023-04-13T16:35:18.310Z,1.33
2023-04-13T16:37:46.333Z,1.30
2023-04-13T16:40:16.703Z,1.23
2023-04-13T16:42:44.996Z,1.57
2023-04-13T16:45:15.075Z,2.20
2023-04-13T16:47:43.637Z,4.10
2023-04-13T16:50:12.536Z,3.93
2023-04-13T16:52:40.865Z,2.27
2023-04-13T16:55:13.870Z,2.40
2023-04-13T16:57:44.158Z,4.10
2023-04-13T17:00:15.054Z,4.30
2023-04-13T17:02:44.162Z,4.10
2023-04-13T17:05:13.687Z,2.57
2023-04-13T17:07:46.707Z,4.20
2023-04-13T17:10:17.467Z,2.73
2023-04-13T17:12:48.173Z,1.33
2023-04-13T17:15:16.269Z,0.80
2023-04-13T17:17:44.356Z,0.90
2023-04-13T17:20:16.337Z,0.90
2023-04-13T17:22:45.294Z,1.37
2023-04-13T17:25:13.421Z,0.70
2023-04-13T17:27:41.668Z,0.80
2023-04-13T17:30:11.979Z,1.30
2023-04-13T17:32:40.181Z,0.70
2023-04-13T17:35:08.951Z,2.43
2023-04-13T17:37:37.049Z,5.80
2023-04-13T17:40:06.197Z,7.70
2023-04-13T17:42:34.437Z,14.63
2023-04-13T17:45:03.031Z,17.43
2023-04-13T17:47:32.565Z,20.87
2023-04-13T17:50:00.708Z,11.77
2023-04-13T17:52:28.680Z,8.87
2023-04-13T17:54:56.787Z,5.30
2023-04-13T17:57:24.871Z,3.30
2023-04-13T17:59:52.934Z,2.60
2023-04-13T18:02:21.087Z,2.07
2023-04-13T18:04:51.789Z,1.00
2023-04-13T18:07:21.736Z,1.73
2023-04-13T18:09:49.799Z,1.53
2023-04-13T18:12:17.853Z,1.40
2023-04-13T18:14:45.961Z,1.57
2023-04-13T18:17:14.165Z,1.10
2023-04-13T18:19:42.707Z,1.40
2023-04-13T18:22:14.050Z,1.57
2023-04-13T18:24:43.948Z,1.13
2023-04-13T18:27:12.843Z,1.30
2023-04-13T18:29:40.938Z,1.30
2023-04-13T18:32:09.704Z,1.70
2023-04-13T18:34:38.119Z,1.80
2023-04-13T18:37:06.696Z,2.60
2023-04-13T18:39:36.239Z,1.90
2023-04-13T18:42:05.088Z,1.47
2023-04-13T18:44:33.146Z,1.73
2023-04-13T18:47:01.444Z,1.70
2023-04-13T18:49:30.078Z,1.93
2023-04-13T18:51:59.260Z,1.43
2023-04-13T18:54:27.474Z,1.60
2023-04-13T18:56:56.902Z,1.70
2023-04-13T18:59:25.031Z,1.83
2023-04-13T19:01:53.233Z,1.97
2023-04-13T19:04:21.517Z,2.10
2023-04-13T19:06:50.035Z,2.13
2023-04-13T19:09:18.160Z,2.40
2023-04-13T19:11:49.096Z,3.63
2023-04-13T19:14:18.658Z,3.63
2023-04-13T19:16:48.313Z,2.50
2023-04-13T19:19:16.581Z,2.43
2023-04-13T19:21:44.633Z,2.50
2023-04-13T19:24:13.313Z,2.90
2023-04-13T19:26:41.850Z,2.70
2023-04-13T19:29:12.694Z,2.93
2023-04-13T19:31:44.072Z,2.13
2023-04-13T19:34:13.047Z,2.10
2023-04-13T19:36:41.534Z,2.77
2023-04-13T19:39:10.224Z,3.00
2023-04-13T19:41:40.759Z,2.73
2023-04-13T19:44:09.973Z,2.70
2023-04-13T19:46:38.746Z,2.73
2023-04-13T19:49:08.169Z,1.80
2023-04-13T19:51:36.455Z,1.70
2023-04-13T19:54:05.172Z,2.00
2023-04-13T19:56:35.384Z,2.03
2023-04-13T19:59:05.465Z,1.70
2023-04-13T20:01:35.158Z,2.40
2023-04-13T20:04:05.348Z,2.07
2023-04-13T20:06:36.027Z,2.23
2023-04-13T20:09:11.844Z,1.60
2023-04-13T20:11:41.177Z,2.10
2023-04-13T20:14:09.623Z,1.97
2023-04-13T20:16:37.708Z,1.90
2023-04-13T20:19:06.787Z,1.73
2023-04-13T20:21:36.536Z,2.10
2023-04-13T20:24:04.826Z,2.20
2023-04-13T20:26:33.098Z,2.40
2023-04-13T20:29:02.807Z,2.30
2023-04-13T20:31:31.538Z,2.40
2023-04-13T20:33:59.872Z,2.03
2023-04-13T20:36:28.171Z,2.17
2023-04-13T20:38:59.365Z,2.20
2023-04-13T20:41:29.855Z,2.67
2023-04-13T20:43:58.809Z,2.20
2023-04-13T20:46:33.879Z,2.30
2023-04-13T20:49:04.424Z,2.13
2023-04-13T20:51:33.164Z,2.10
2023-04-13T20:54:05.579Z,2.20
2023-04-13T20:56:34.302Z,2.33
2023-04-13T20:59:03.291Z,2.50
2023-04-13T21:01:31.776Z,2.37
2023-04-13T21:04:00.210Z,2.30
2023-04-13T21:06:29.936Z,2.83
2023-04-13T21:08:59.152Z,2.37
2023-04-13T21:11:29.449Z,2.50
2023-04-13T21:13:57.574Z,2.87
2023-04-13T21:16:26.719Z,3.20
2023-04-13T21:18:56.079Z,2.40
2023-04-13T21:21:25.025Z,2.90
2023-04-13T21:23:54.380Z,2.77
2023-04-13T21:26:22.558Z,2.73
2023-04-13T21:28:51.996Z,2.83
2023-04-13T21:31:20.215Z,2.57
2023-04-13T21:33:48.962Z,2.60
2023-04-13T21:38:48.204Z,2.60
2023-04-13T21:41:16.911Z,2.30
2023-04-13T21:43:45.277Z,2.67
2023-04-13T21:46:16.398Z,2.60
2023-04-13T21:48:44.638Z,2.60
2023-04-13T21:51:12.619Z,2.10
2023-04-13T21:53:40.683Z,2.10
2023-04-13T21:56:09.190Z,2.30
2023-04-13T21:58:41.838Z,2.63
2023-04-13T22:01:10.883Z,2.40
2023-04-13T22:03:41.992Z,2.40
2023-04-13T22:06:11.626Z,3.30
2023-04-13T22:08:40.346Z,2.90
2023-04-13T22:11:08.654Z,2.80
2023-04-13T22:13:36.813Z,3.30
2023-04-13T22:16:05.109Z,4.77
2023-04-13T22:18:33.332Z,6.50
2023-04-13T22:21:02.690Z,23.30
2023-04-13T22:23:31.088Z,13.07
2023-04-13T22:26:01.386Z,8.40
2023-04-13T22:28:30.422Z,9.90
2023-04-13T22:30:58.690Z,4.93
2023-04-13T22:33:31.829Z,4.50
2023-04-13T22:36:00.068Z,4.00
2023-04-13T22:38:29.627Z,4.27
2023-04-13T22:40:57.825Z,4.40
2023-04-13T22:43:26.323Z,4.77
2023-04-13T22:46:00.658Z,4.80
2023-04-13T22:48:29.708Z,4.17
2023-04-13T22:50:57.963Z,4.17
2023-04-13T22:53:27.048Z,4.03
2023-04-13T22:55:56.642Z,4.43
2023-04-13T22:58:24.840Z,4.90
2023-04-13T23:00:53.253Z,4.60
2023-04-13T23:03:22.312Z,4.67
2023-04-13T23:05:50.702Z,4.40
2023-04-13T23:08:18.853Z,4.33
2023-04-13T23:10:47.253Z,4.13
2023-04-13T23:13:16.906Z,4.27
2023-04-13T23:15:44.965Z,4.20
2023-04-13T23:18:13.046Z,4.00
2023-04-13T23:20:41.102Z,5.10
2023-04-13T23:23:09.227Z,4.47
2023-04-13T23:25:37.271Z,5.50
2023-04-13T23:28:05.571Z,6.00
2023-04-13T23:30:35.113Z,5.57
2023-04-13T23:33:03.171Z,4.73
2023-04-13T23:35:31.195Z,3.80
2023-04-13T23:37:59.180Z,4.37
2023-04-13T23:40:27.246Z,4.50
2023-04-13T23:42:55.324Z,4.30
2023-04-13T23:45:24.937Z,4.80
2023-04-13T23:47:54.531Z,4.60
2023-04-13T23:50:23.152Z,4.90
2023-04-13T23:52:51.809Z,4.97
2023-04-13T23:55:19.881Z,5.37
2023-04-13T23:57:47.921Z,5.50
